Terminal Aerodrome Forecast
Issued by NWS Pittsburgh, PA

Home | Current Version | Previous Version | Text Only | Print | Product List | Glossary On
Versions: 1 2 3 4 5 6 7 8 9 10 11 12 13 14 15 16 17 18 19 20 21 22 23 24 25 26 27
000
FTUS41 KPBZ 061452 AAA
TAFPIT
TAF AMD
KPIT 061452Z 0615/0718 11007KT P6SM BKN070
     FM061700 19006KT P6SM VCSH BKN050
      TEMPO 0617/0621 4SM -SHRA BR BKN025
     FM062300 21005KT P6SM BKN040=

USA.gov is the U.S. government's official web portal to all federal, state and local government web resources and services.